createdAt,value
2023-05-21T00:02:24.099Z,18.59
2023-05-21T00:04:52.351Z,18.58
2023-05-21T00:07:20.386Z,18.57
2023-05-21T00:09:47.966Z,18.55
2023-05-21T00:12:15.630Z,18.54
2023-05-21T00:14:43.177Z,18.52
2023-05-21T00:17:12.077Z,18.51
2023-05-21T00:19:39.788Z,18.49
2023-05-21T00:22:07.344Z,18.49
2023-05-21T00:24:34.952Z,18.48
2023-05-21T00:27:02.694Z,18.46
2023-05-21T00:29:30.239Z,18.45
2023-05-21T00:31:57.860Z,18.42
2023-05-21T00:34:27.234Z,18.40
2023-05-21T00:36:55.515Z,18.40
2023-05-21T00:39:23.098Z,18.39
2023-05-21T00:41:50.952Z,18.38
2023-05-21T00:44:19.566Z,18.36
2023-05-21T00:46:48.762Z,18.36
2023-05-21T00:49:16.938Z,18.35
2023-05-21T00:51:46.123Z,18.32
2023-05-21T00:54:13.949Z,18.31
2023-05-21T00:56:42.413Z,18.29
2023-05-21T00:59:10.046Z,18.27
2023-05-21T01:01:37.778Z,18.27
2023-05-21T01:04:06.009Z,18.26
2023-05-21T01:06:35.291Z,18.24
2023-05-21T01:09:06.775Z,18.24
2023-05-21T01:11:39.832Z,18.22
2023-05-21T01:14:09.329Z,18.20
2023-05-21T01:16:38.741Z,18.20
2023-05-21T01:19:07.976Z,18.18
2023-05-21T01:21:38.302Z,18.18
2023-05-21T01:24:07.843Z,18.17
2023-05-21T01:26:38.706Z,18.16
2023-05-21T01:29:07.226Z,18.15
2023-05-21T01:31:41.512Z,18.13
2023-05-21T01:34:12.112Z,18.12
2023-05-21T01:36:44.651Z,18.11
2023-05-21T01:39:21.379Z,18.12
2023-05-21T01:41:50.638Z,18.09
2023-05-21T01:44:19.738Z,18.09
2023-05-21T01:46:47.609Z,18.08
2023-05-21T01:49:16.500Z,18.07
2023-05-21T01:51:44.760Z,18.05
2023-05-21T01:54:12.346Z,18.05
2023-05-21T01:56:41.350Z,18.04
2023-05-21T01:59:09.066Z,18.03
2023-05-21T02:01:36.771Z,18.02
2023-05-21T02:04:04.465Z,18.02
2023-05-21T02:06:32.199Z,18.01
2023-05-21T02:08:59.761Z,18.00
2023-05-21T02:11:27.728Z,18.00
2023-05-21T02:13:57.765Z,18.00
2023-05-21T02:16:26.423Z,17.98
2023-05-21T02:18:57.458Z,17.98
2023-05-21T02:21:25.139Z,17.97
2023-05-21T02:23:52.771Z,17.95
2023-05-21T02:26:21.782Z,17.94
2023-05-21T02:28:49.360Z,17.94
2023-05-21T02:31:18.276Z,17.94
2023-05-21T02:33:46.219Z,17.94
2023-05-21T02:36:15.262Z,17.94
2023-05-21T02:38:43.574Z,17.94
2023-05-21T02:41:11.787Z,17.92
2023-05-21T02:43:39.385Z,17.91
2023-05-21T02:46:08.075Z,17.90
2023-05-21T02:48:36.974Z,17.88
2023-05-21T02:51:04.732Z,17.89
2023-05-21T02:53:32.322Z,17.87
2023-05-21T02:55:59.887Z,17.88
2023-05-21T02:58:27.485Z,17.88
2023-05-21T03:00:55.121Z,17.87
2023-05-21T03:03:22.876Z,17.86
2023-05-21T03:05:52.913Z,17.86
2023-05-21T03:08:21.331Z,17.85
2023-05-21T03:10:49.650Z,17.84
2023-05-21T03:13:17.316Z,17.83
2023-05-21T03:15:46.461Z,17.82
2023-05-21T03:18:14.134Z,17.81
2023-05-21T03:20:43.777Z,17.81
2023-05-21T03:23:16.501Z,17.80
2023-05-21T03:25:45.876Z,17.79
2023-05-21T03:28:13.595Z,17.79
2023-05-21T03:30:41.840Z,17.78
2023-05-21T03:33:11.028Z,17.76
2023-05-21T03:35:38.766Z,17.75
2023-05-21T03:38:06.392Z,17.75
2023-05-21T03:40:35.410Z,17.73
2023-05-21T03:43:03.016Z,17.72
2023-05-21T03:45:30.660Z,17.71
2023-05-21T03:47:58.209Z,17.70
2023-05-21T03:50:25.813Z,17.68
2023-05-21T03:52:53.378Z,17.68
2023-05-21T03:55:21.088Z,17.68
2023-05-21T03:57:50.081Z,17.68
2023-05-21T04:00:17.894Z,17.67
2023-05-21T04:02:45.641Z,17.67
2023-05-21T04:05:13.250Z,17.65
2023-05-21T04:07:40.890Z,17.66
2023-05-21T04:10:09.517Z,17.68
2023-05-21T04:12:37.299Z,17.67
2023-05-21T04:15:07.793Z,17.68
2023-05-21T04:17:35.518Z,17.68
2023-05-21T04:20:04.303Z,17.68
2023-05-21T04:22:31.880Z,17.71
2023-05-21T04:24:59.629Z,17.71
2023-05-21T04:27:27.553Z,17.72
2023-05-21T04:29:55.635Z,17.73
2023-05-21T04:32:25.001Z,17.75
2023-05-21T04:34:52.606Z,17.77
2023-05-21T04:37:20.253Z,17.79
2023-05-21T04:39:48.017Z,17.84
2023-05-21T04:42:15.579Z,17.85
2023-05-21T04:44:44.421Z,17.86
2023-05-21T04:47:14.823Z,17.87
2023-05-21T04:49:44.222Z,17.88
2023-05-21T04:52:12.343Z,17.89
2023-05-21T04:54:41.854Z,17.88
2023-05-21T04:57:09.893Z,17.86
2023-05-21T04:59:37.617Z,17.86
2023-05-21T05:02:05.447Z,17.86
2023-05-21T05:04:33.070Z,17.85
2023-05-21T05:07:01.993Z,17.87
2023-05-21T05:09:30.347Z,17.89
2023-05-21T05:11:57.967Z,17.89
2023-05-21T05:14:25.574Z,17.88
2023-05-21T05:16:54.445Z,17.89
2023-05-21T05:19:22.204Z,17.90
2023-05-21T05:21:49.881Z,17.92
2023-05-21T05:24:18.869Z,17.94
2023-05-21T05:26:46.440Z,17.97
2023-05-21T05:29:14.030Z,17.96
2023-05-21T05:31:41.725Z,17.99
2023-05-21T05:34:09.425Z,18.03
2023-05-21T05:36:37.036Z,18.08
2023-05-21T05:39:04.965Z,18.09
2023-05-21T05:41:33.875Z,18.10
2023-05-21T05:44:01.554Z,18.13
2023-05-21T05:46:30.108Z,18.16
2023-05-21T05:48:57.719Z,18.18
2023-05-21T05:51:25.321Z,18.19
2023-05-21T05:53:53.940Z,18.20
2023-05-21T05:56:21.638Z,18.24
2023-05-21T05:58:50.627Z,18.27
2023-05-21T06:01:18.201Z,18.31
2023-05-21T06:03:45.992Z,18.34
2023-05-21T06:06:13.798Z,18.38
2023-05-21T06:08:41.521Z,18.41
2023-05-21T06:11:09.563Z,18.44
2023-05-21T06:13:37.183Z,18.49
2023-05-21T06:16:07.525Z,18.53
2023-05-21T06:18:35.188Z,18.58
2023-05-21T06:21:02.796Z,18.62
2023-05-21T06:23:32.085Z,18.67
2023-05-21T06:25:59.794Z,18.72
2023-05-21T06:28:27.405Z,18.77
2023-05-21T06:30:55.062Z,18.81
2023-05-21T06:33:24.203Z,18.88
2023-05-21T06:35:51.976Z,18.92
2023-05-21T06:38:19.568Z,19.00
2023-05-21T06:40:48.301Z,19.03
2023-05-21T06:43:15.943Z,19.07
2023-05-21T06:45:43.650Z,19.14
2023-05-21T06:48:12.172Z,19.20
2023-05-21T06:50:41.275Z,19.25
2023-05-21T06:53:08.888Z,19.31
2023-05-21T06:55:37.306Z,19.38
2023-05-21T06:58:05.120Z,19.42
2023-05-21T07:00:32.733Z,19.48
2023-05-21T07:03:00.563Z,19.54
2023-05-21T07:05:28.332Z,19.59
2023-05-21T07:07:57.403Z,19.60
2023-05-21T07:10:25.009Z,19.60
2023-05-21T07:12:52.647Z,19.61
2023-05-21T07:15:20.382Z,19.61
2023-05-21T07:17:47.986Z,19.61
2023-05-21T07:20:15.853Z,19.58
2023-05-21T07:22:44.899Z,19.61
2023-05-21T07:25:13.810Z,19.66
2023-05-21T07:27:41.398Z,19.74
2023-05-21T07:30:10.699Z,19.79
2023-05-21T07:32:38.359Z,19.84
2023-05-21T07:35:06.753Z,19.89
2023-05-21T07:37:34.418Z,19.92
2023-05-21T07:40:02.044Z,19.95
2023-05-21T07:42:32.050Z,19.99
2023-05-21T07:44:59.696Z,20.03
2023-05-21T07:47:27.396Z,20.07
2023-05-21T07:49:55.042Z,20.10
2023-05-21T07:52:22.778Z,20.14
2023-05-21T07:54:50.634Z,20.17
2023-05-21T07:57:18.166Z,20.21
2023-05-21T07:59:47.077Z,20.25
2023-05-21T08:02:14.673Z,20.28
2023-05-21T08:04:42.319Z,20.30
2023-05-21T08:07:10.663Z,20.33
2023-05-21T08:09:38.346Z,20.34
2023-05-21T08:12:06.460Z,20.36
2023-05-21T08:14:34.059Z,20.38
2023-05-21T08:17:02.981Z,20.39
2023-05-21T08:19:31.228Z,20.45
2023-05-21T08:21:58.978Z,20.42
2023-05-21T08:24:27.023Z,20.46
2023-05-21T08:26:54.598Z,20.44
2023-05-21T08:29:22.184Z,20.45
2023-05-21T08:31:49.870Z,20.46
2023-05-21T08:34:18.856Z,20.50
2023-05-21T08:36:47.879Z,20.53
2023-05-21T08:39:15.542Z,20.55
2023-05-21T08:41:49.409Z,20.58
2023-05-21T08:44:22.040Z,20.58
2023-05-21T08:46:51.709Z,20.61
2023-05-21T08:49:27.750Z,20.65
2023-05-21T08:51:56.259Z,20.65
2023-05-21T08:54:23.897Z,20.68
2023-05-21T08:56:52.054Z,20.70
2023-05-21T08:59:23.094Z,20.72
2023-05-21T09:01:52.167Z,20.74
2023-05-21T09:04:22.167Z,20.76
2023-05-21T09:06:50.848Z,20.78
2023-05-21T09:09:24.235Z,20.81
2023-05-21T09:11:51.829Z,20.81
2023-05-21T09:14:20.548Z,20.83
2023-05-21T09:16:49.177Z,20.82
2023-05-21T09:19:16.842Z,20.81
2023-05-21T09:21:45.877Z,20.79
2023-05-21T09:24:15.224Z,20.80
2023-05-21T09:26:43.722Z,20.81
2023-05-21T09:29:11.310Z,20.78
2023-05-21T09:31:44.337Z,20.79
2023-05-21T09:34:13.927Z,20.77
2023-05-21T09:36:41.674Z,20.77
2023-05-21T09:39:11.732Z,20.76
2023-05-21T09:41:39.333Z,20.76
2023-05-21T09:44:06.950Z,20.75
2023-05-21T09:46:41.475Z,20.76
2023-05-21T09:49:23.865Z,20.77
2023-05-21T09:51:51.533Z,20.77
2023-05-21T09:54:23.937Z,20.76
2023-05-21T09:56:52.486Z,20.79
2023-05-21T09:59:22.017Z,20.82
2023-05-21T10:01:52.309Z,20.86
2023-05-21T10:04:20.672Z,20.87
2023-05-21T10:06:50.939Z,20.87
2023-05-21T10:09:21.461Z,20.87
2023-05-21T10:11:50.639Z,20.90
2023-05-21T10:14:21.081Z,20.92
2023-05-21T10:16:49.157Z,20.93
2023-05-21T10:19:17.202Z,20.94
2023-05-21T10:21:46.660Z,20.95
2023-05-21T10:24:14.785Z,20.98
2023-05-21T10:26:43.950Z,20.99
2023-05-21T10:29:13.316Z,21.00
2023-05-21T10:31:41.360Z,21.00
2023-05-21T10:34:09.748Z,21.00
2023-05-21T10:36:38.844Z,21.02
2023-05-21T10:39:09.505Z,21.03
2023-05-21T10:41:45.286Z,21.04
2023-05-21T10:44:22.724Z,21.06
2023-05-21T10:47:11.209Z,21.09
2023-05-21T10:50:00.264Z,21.11
2023-05-21T10:52:45.403Z,21.14
2023-05-21T10:55:24.299Z,21.17
2023-05-21T10:58:16.679Z,21.22
2023-05-21T11:00:46.472Z,21.24
2023-05-21T11:03:15.945Z,21.26
2023-05-21T11:05:55.120Z,21.28
2023-05-21T11:08:24.062Z,21.29
2023-05-21T11:10:57.854Z,21.30
2023-05-21T11:13:26.294Z,21.34
2023-05-21T11:16:15.881Z,21.36
2023-05-21T11:18:58.624Z,21.36
2023-05-21T11:21:31.126Z,21.39
2023-05-21T11:24:08.373Z,21.43
2023-05-21T11:27:04.814Z,21.46
2023-05-21T11:29:41.883Z,21.47
2023-05-21T11:32:12.103Z,21.47
2023-05-21T11:34:47.379Z,21.50
2023-05-21T11:37:34.640Z,21.51
2023-05-21T11:40:18.557Z,21.52
2023-05-21T11:42:51.553Z,21.53
2023-05-21T11:45:20.239Z,21.53
2023-05-21T11:47:50.119Z,21.54
2023-05-21T11:50:18.750Z,21.56
2023-05-21T11:52:46.508Z,21.59
2023-05-21T11:55:15.622Z,21.61
2023-05-21T11:57:44.737Z,21.63
2023-05-21T12:00:17.617Z,21.66
2023-05-21T12:02:47.327Z,21.68
2023-05-21T12:05:16.595Z,21.71
2023-05-21T12:07:48.454Z,21.73
2023-05-21T12:10:16.060Z,21.76
2023-05-21T12:12:54.668Z,21.80
2023-05-21T12:15:25.094Z,21.83
2023-05-21T12:17:53.545Z,21.83
2023-05-21T12:20:23.218Z,21.84
2023-05-21T12:22:51.014Z,21.87
2023-05-21T12:25:20.462Z,21.89
2023-05-21T12:27:50.208Z,21.90
2023-05-21T12:30:17.923Z,21.90
2023-05-21T12:32:45.550Z,21.91
2023-05-21T12:35:24.002Z,21.95
2023-05-21T12:37:52.472Z,21.98
2023-05-21T12:40:21.163Z,22.02
2023-05-21T12:42:48.951Z,22.04
2023-05-21T12:45:18.517Z,22.07
2023-05-21T12:47:49.895Z,22.10
2023-05-21T12:50:22.732Z,22.13
2023-05-21T12:52:50.314Z,22.16
2023-05-21T12:55:18.296Z,22.20
2023-05-21T12:57:46.495Z,22.23
2023-05-21T13:00:14.369Z,22.25
2023-05-21T13:02:44.345Z,22.27
2023-05-21T13:05:17.176Z,22.33
2023-05-21T13:07:47.694Z,22.35
2023-05-21T13:10:17.227Z,22.40
2023-05-21T13:12:45.071Z,22.42
2023-05-21T13:15:13.206Z,22.41
2023-05-21T13:17:40.844Z,22.43
2023-05-21T13:20:11.971Z,22.44
2023-05-21T13:22:42.251Z,22.47
2023-05-21T13:25:12.219Z,22.48
2023-05-21T13:27:40.017Z,22.47
2023-05-21T13:30:09.524Z,22.48
2023-05-21T13:32:37.338Z,22.48
2023-05-21T13:35:05.941Z,22.48
2023-05-21T13:37:36.030Z,22.49
2023-05-21T13:40:03.898Z,22.47
2023-05-21T13:42:33.222Z,22.48
2023-05-21T13:45:00.829Z,22.48
2023-05-21T13:47:28.544Z,22.49
2023-05-21T13:49:56.179Z,22.50
2023-05-21T13:52:23.800Z,22.50
2023-05-21T13:54:51.379Z,22.51
2023-05-21T13:57:19.279Z,22.53
2023-05-21T13:59:48.347Z,22.54
2023-05-21T14:02:15.968Z,22.57
2023-05-21T14:04:43.555Z,22.59
2023-05-21T14:07:11.891Z,22.61
2023-05-21T14:09:39.498Z,22.65
2023-05-21T14:12:07.470Z,22.70
2023-05-21T14:14:35.054Z,22.71
2023-05-21T14:17:03.970Z,22.72
2023-05-21T14:19:31.649Z,22.74
2023-05-21T14:21:59.837Z,22.77
2023-05-21T14:24:27.486Z,22.77
2023-05-21T14:26:55.082Z,22.80
2023-05-21T14:29:22.641Z,22.81
2023-05-21T14:31:50.325Z,22.81
2023-05-21T14:34:19.286Z,22.80
2023-05-21T14:36:46.936Z,22.81
2023-05-21T14:39:14.502Z,22.83
2023-05-21T14:41:42.619Z,22.80
2023-05-21T14:44:10.166Z,22.78
2023-05-21T14:46:37.818Z,22.77
2023-05-21T14:49:05.447Z,22.74
2023-05-21T14:51:34.376Z,22.73
2023-05-21T14:54:02.009Z,22.72
2023-05-21T14:56:29.576Z,22.71
2023-05-21T14:58:57.232Z,22.70
2023-05-21T15:01:25.207Z,22.70
2023-05-21T15:03:52.960Z,22.67
2023-05-21T15:06:20.739Z,22.66
2023-05-21T15:08:49.643Z,22.64
2023-05-21T15:11:17.220Z,22.62
2023-05-21T15:13:44.754Z,22.61
2023-05-21T15:16:12.334Z,22.58
2023-05-21T15:18:40.043Z,22.58
2023-05-21T15:21:07.792Z,22.57
2023-05-21T15:23:35.374Z,22.55
2023-05-21T15:26:04.464Z,22.55
2023-05-21T15:28:32.047Z,22.57
2023-05-21T15:30:59.605Z,22.58
2023-05-21T15:33:27.241Z,22.57
2023-05-21T15:35:54.844Z,22.54
2023-05-21T15:38:22.411Z,22.52
2023-05-21T15:40:50.085Z,22.51
2023-05-21T15:43:19.005Z,22.49
2023-05-21T15:45:46.556Z,22.49
2023-05-21T15:48:14.713Z,22.49
2023-05-21T15:50:42.378Z,22.50
2023-05-21T15:53:11.835Z,22.52
2023-05-21T15:55:39.554Z,22.50
2023-05-21T15:58:07.390Z,22.48
2023-05-21T16:00:36.428Z,22.47
2023-05-21T16:03:04.595Z,22.42
2023-05-21T16:05:32.240Z,22.41
2023-05-21T16:07:59.785Z,22.37
2023-05-21T16:10:27.336Z,22.35
2023-05-21T16:12:54.927Z,22.34
2023-05-21T16:15:22.500Z,22.34
2023-05-21T16:17:51.448Z,22.33
2023-05-21T16:20:21.650Z,22.31
2023-05-21T16:22:49.277Z,22.31
2023-05-21T16:25:16.951Z,22.32
2023-05-21T16:27:44.493Z,22.34
2023-05-21T16:30:14.207Z,22.35
2023-05-21T16:32:42.003Z,22.35
2023-05-21T16:35:11.016Z,22.36
2023-05-21T16:37:38.646Z,22.37
2023-05-21T16:40:07.616Z,22.36
2023-05-21T16:42:35.233Z,22.38
2023-05-21T16:45:02.832Z,22.40
2023-05-21T16:47:30.381Z,22.42
2023-05-21T16:49:58.537Z,22.43
2023-05-21T16:52:27.489Z,22.46
2023-05-21T16:54:55.142Z,22.48
2023-05-21T16:57:22.714Z,22.50
2023-05-21T16:59:50.295Z,22.50
2023-05-21T17:02:17.995Z,22.52
2023-05-21T17:04:46.099Z,22.52
2023-05-21T17:07:13.732Z,22.52
2023-05-21T17:09:42.712Z,22.51
2023-05-21T17:12:10.332Z,22.50
2023-05-21T17:14:39.584Z,22.48
2023-05-21T17:17:07.264Z,22.45
2023-05-21T17:19:34.994Z,22.44
2023-05-21T17:22:02.686Z,22.41
2023-05-21T17:24:30.772Z,22.38
2023-05-21T17:26:59.963Z,22.36
2023-05-21T17:29:27.514Z,22.34
2023-05-21T17:31:55.360Z,22.33
2023-05-21T17:34:26.080Z,22.30
2023-05-21T17:36:54.956Z,22.27
2023-05-21T17:39:22.648Z,22.26
2023-05-21T17:41:51.289Z,22.25
2023-05-21T17:44:21.537Z,22.23
2023-05-21T17:46:50.863Z,22.23
2023-05-21T17:49:19.002Z,22.21
2023-05-21T17:51:46.562Z,22.19
2023-05-21T17:54:14.891Z,22.18
2023-05-21T17:56:43.189Z,22.17
2023-05-21T17:59:12.635Z,22.16
2023-05-21T18:01:41.640Z,22.14
2023-05-21T18:04:12.070Z,22.13
2023-05-21T18:06:39.877Z,22.10
2023-05-21T18:09:08.036Z,22.09
2023-05-21T18:11:35.757Z,22.07
2023-05-21T18:14:03.890Z,22.04
2023-05-21T18:16:31.724Z,22.01
2023-05-21T18:19:02.016Z,21.99
2023-05-21T18:21:29.658Z,21.97
2023-05-21T18:23:57.218Z,21.95
2023-05-21T18:26:25.016Z,21.93
2023-05-21T18:28:52.657Z,21.90
2023-05-21T18:31:20.480Z,21.84
2023-05-21T18:33:48.604Z,21.79
2023-05-21T18:36:18.627Z,21.76
2023-05-21T18:38:46.217Z,21.72
2023-05-21T18:41:13.828Z,21.67
2023-05-21T18:43:42.396Z,21.67
2023-05-21T18:46:10.036Z,21.66
2023-05-21T18:48:37.677Z,21.63
2023-05-21T18:51:05.293Z,21.60
2023-05-21T18:53:34.323Z,21.59
2023-05-21T18:56:01.950Z,21.58
2023-05-21T18:58:30.274Z,21.54
2023-05-21T19:00:58.011Z,21.53
2023-05-21T19:03:25.992Z,21.52
2023-05-21T19:05:53.585Z,21.48
2023-05-21T19:08:21.311Z,21.44
2023-05-21T19:10:50.592Z,21.43
2023-05-21T19:13:18.198Z,21.41
2023-05-21T19:15:47.994Z,21.37
2023-05-21T19:18:17.045Z,21.38
2023-05-21T19:20:44.656Z,21.36
2023-05-21T19:23:12.242Z,21.33
2023-05-21T19:25:39.859Z,21.29
2023-05-21T19:28:08.806Z,21.28
2023-05-21T19:30:36.727Z,21.25
2023-05-21T19:33:05.036Z,21.24
2023-05-21T19:35:32.649Z,21.22
2023-05-21T19:38:02.435Z,21.18
2023-05-21T19:40:31.844Z,21.17
2023-05-21T19:42:59.482Z,21.13
2023-05-21T19:45:28.382Z,21.09
2023-05-21T19:47:56.668Z,21.08
2023-05-21T19:50:24.579Z,21.05
2023-05-21T19:52:52.201Z,21.03
2023-05-21T19:55:20.195Z,21.01
2023-05-21T19:57:48.249Z,21.00
2023-05-21T20:00:16.633Z,20.95
2023-05-21T20:02:45.817Z,20.90
2023-05-21T20:05:13.786Z,20.89
2023-05-21T20:07:41.418Z,20.84
2023-05-21T20:10:09.782Z,20.87
2023-05-21T20:12:38.828Z,20.86
2023-05-21T20:15:07.587Z,20.84
2023-05-21T20:17:35.886Z,20.84
2023-05-21T20:20:11.045Z,20.84
2023-05-21T20:22:38.637Z,20.84
2023-05-21T20:25:08.702Z,20.84
2023-05-21T20:27:38.577Z,20.85
2023-05-21T20:30:07.894Z,20.87
2023-05-21T20:32:35.620Z,20.83
2023-05-21T20:35:04.109Z,20.84
2023-05-21T20:37:33.801Z,20.85
2023-05-21T20:40:01.548Z,20.83
2023-05-21T20:42:34.220Z,20.83
2023-05-21T20:45:02.915Z,20.83
2023-05-21T20:47:30.743Z,20.83
2023-05-21T20:49:58.609Z,20.80
2023-05-21T20:52:26.753Z,20.78
2023-05-21T20:54:56.537Z,20.77
2023-05-21T20:57:25.993Z,20.74
2023-05-21T20:59:53.611Z,20.75
2023-05-21T21:02:22.905Z,20.73
2023-05-21T21:04:51.621Z,20.72
2023-05-21T21:07:19.831Z,20.70
2023-05-21T21:09:48.185Z,20.70
2023-05-21T21:14:47.558Z,20.68
2023-05-21T21:17:15.164Z,20.67
2023-05-21T21:19:42.741Z,20.67
2023-05-21T21:22:10.315Z,20.66
2023-05-21T21:24:37.920Z,20.65
2023-05-21T21:27:06.622Z,20.63
2023-05-21T21:29:35.589Z,20.62
2023-05-21T21:32:03.328Z,20.62
2023-05-21T21:34:31.033Z,20.60
2023-05-21T21:36:58.660Z,20.60
2023-05-21T21:39:26.792Z,20.59
2023-05-21T21:41:54.542Z,20.59
2023-05-21T21:44:22.197Z,20.56
2023-05-21T21:46:51.238Z,20.56
2023-05-21T21:49:18.837Z,20.55
2023-05-21T21:51:46.604Z,20.55
2023-05-21T21:54:14.246Z,20.54
2023-05-21T21:56:42.143Z,20.53
2023-05-21T21:59:09.804Z,20.51
2023-05-21T22:01:37.625Z,20.50
2023-05-21T22:04:06.685Z,20.48
2023-05-21T22:06:34.283Z,20.46
2023-05-21T22:09:02.089Z,20.45
2023-05-21T22:11:29.662Z,20.45
2023-05-21T22:13:57.244Z,20.44
2023-05-21T22:16:25.637Z,20.44
2023-05-21T22:18:54.045Z,20.44
2023-05-21T22:21:26.834Z,20.42
2023-05-21T22:23:54.561Z,20.43
2023-05-21T22:26:22.958Z,20.40
2023-05-21T22:28:50.602Z,20.39
2023-05-21T22:31:18.448Z,20.39
2023-05-21T22:33:46.120Z,20.38
2023-05-21T22:36:13.689Z,20.37
2023-05-21T22:38:43.442Z,20.35
2023-05-21T22:41:11.232Z,20.34
2023-05-21T22:43:38.986Z,20.33
2023-05-21T22:46:06.755Z,20.32
2023-05-21T22:48:37.026Z,20.32
2023-05-21T22:51:05.383Z,20.31
2023-05-21T22:53:34.142Z,20.30
2023-05-21T22:56:03.170Z,20.29
2023-05-21T22:58:30.801Z,20.28
2023-05-21T23:00:58.586Z,20.29
2023-05-21T23:03:26.264Z,20.29
2023-05-21T23:05:53.827Z,20.27
2023-05-21T23:08:21.402Z,20.25
2023-05-21T23:10:49.039Z,20.26
2023-05-21T23:13:17.935Z,20.24
2023-05-21T23:15:45.754Z,20.25
2023-05-21T23:18:13.432Z,20.25
2023-05-21T23:20:41.777Z,20.22
2023-05-21T23:23:10.137Z,20.22
2023-05-21T23:25:37.793Z,20.20
2023-05-21T23:28:05.701Z,20.18
2023-05-21T23:30:34.555Z,20.18
2023-05-21T23:33:02.189Z,20.19
2023-05-21T23:35:29.792Z,20.18
2023-05-21T23:37:57.401Z,20.17
2023-05-21T23:40:25.032Z,20.17
2023-05-21T23:42:52.652Z,20.15
2023-05-21T23:45:20.321Z,20.15
2023-05-21T23:47:49.276Z,20.13
2023-05-21T23:50:17.015Z,20.12
2023-05-21T23:52:44.854Z,20.10
2023-05-21T23:55:14.536Z,20.10
2023-05-21T23:57:42.100Z,20.09
